Time;durP1;ratioP1;P1;durP2;ratioP2;P2;SDS_P1;SDS_P2;PMS_P1;PMS_P2;Temp;Humidity;BMP_temperature;BMP_pressure;BME280_temperature;BME280_humidity;BME280_pressure;Samples;Min_cycle;Max_cycle;Signal;HPM_P1;HPM_P2
2022/01/08 00:00:41;;;;;;;8.87;5.23;;;2.20;99.90;;;;;;4966462;28;20490;-65
2022/01/08 00:03:10;;;;;;;8.90;5.40;;;2.20;99.90;;;;;;4967739;28;20480;-66
2022/01/08 00:05:38;;;;;;;9.70;5.47;;;2.20;99.90;;;;;;4966730;28;20495;-65
2022/01/08 00:08:07;;;;;;;11.43;5.87;;;2.10;99.90;;;;;;4966884;28;20487;-66
2022/01/08 00:10:37;;;;;;;9.50;5.80;;;2.10;99.90;;;;;;4967418;28;21388;-65
2022/01/08 00:13:06;;;;;;;8.70;6.07;;;2.20;99.90;;;;;;4970278;28;20545;-65
2022/01/08 00:15:34;;;;;;;8.07;6.20;;;2.10;99.90;;;;;;4969841;28;20478;-65
2022/01/08 00:18:04;;;;;;;11.20;6.20;;;2.10;99.90;;;;;;4971459;28;20503;-66
2022/01/08 00:20:35;;;;;;;10.40;6.33;;;2.10;99.90;;;;;;4973212;28;20476;-66
2022/01/08 00:23:04;;;;;;;9.10;6.10;;;2.10;99.90;;;;;;4973443;28;20478;-66
2022/01/08 00:25:32;;;;;;;11.37;7.13;;;2.10;99.90;;;;;;4973379;28;20478;-66
2022/01/08 00:28:01;;;;;;;10.13;6.93;;;2.20;99.90;;;;;;4973206;28;20489;-66
2022/01/08 00:30:31;;;;;;;13.20;6.90;;;2.20;99.90;;;;;;4973303;28;20498;-66
2022/01/08 00:32:59;;;;;;;10.73;6.83;;;2.20;99.90;;;;;;4973602;28;20483;-65
2022/01/08 00:35:31;;;;;;;10.77;7.20;;;2.10;99.90;;;;;;4973108;28;20482;-65
2022/01/08 00:38:00;;;;;;;11.33;6.97;;;2.10;99.90;;;;;;4973315;28;20467;-66
2022/01/08 00:40:28;;;;;;;9.37;7.20;;;2.10;99.90;;;;;;4972887;28;20486;-66
2022/01/08 00:42:57;;;;;;;11.87;7.40;;;2.20;99.90;;;;;;4972796;28;20495;-65
2022/01/08 00:45:26;;;;;;;9.20;6.83;;;2.20;99.90;;;;;;4973261;28;20486;-66
2022/01/08 00:47:54;;;;;;;10.13;7.80;;;2.20;99.90;;;;;;4972460;28;20474;-65
2022/01/08 00:50:23;;;;;;;11.03;7.53;;;2.20;99.90;;;;;;4973163;28;20535;-65
2022/01/08 00:52:53;;;;;;;10.83;7.17;;;2.20;99.90;;;;;;4972709;28;20546;-66
2022/01/08 00:55:21;;;;;;;11.90;7.73;;;2.30;99.90;;;;;;4972835;28;20490;-66
2022/01/08 00:57:49;;;;;;;11.40;7.93;;;2.30;99.90;;;;;;4972673;28;21029;-66
2022/01/08 01:00:18;;;;;;;10.27;8.00;;;2.30;99.90;;;;;;4972871;28;20542;-66
2022/01/08 01:02:46;;;;;;;11.50;7.87;;;2.30;99.90;;;;;;4972369;28;20538;-65
2022/01/08 01:05:15;;;;;;;10.13;8.30;;;2.30;99.90;;;;;;4972693;28;20847;-66
2022/01/08 01:07:43;;;;;;;11.43;8.10;;;2.50;99.90;;;;;;4972135;28;20486;-65
2022/01/08 01:10:15;;;;;;;9.50;8.17;;;2.40;99.90;;;;;;4972308;28;20494;-66
2022/01/08 01:12:44;;;;;;;11.00;8.50;;;2.40;99.90;;;;;;4972637;28;21128;-66
2022/01/08 01:15:16;;;;;;;10.30;8.60;;;2.40;99.90;;;;;;4972618;28;20532;-66
2022/01/08 01:17:46;;;;;;;14.93;8.20;;;2.40;99.90;;;;;;4971971;28;21001;-65
2022/01/08 01:20:17;;;;;;;9.57;8.20;;;2.50;99.90;;;;;;4971707;28;20480;-65
2022/01/08 01:23:06;;;;;;;12.50;8.63;;;2.50;99.90;;;;;;1782696;28;10002040;-66
2022/01/08 01:25:39;;;;;;;10.47;8.27;;;2.50;99.90;;;;;;4628335;28;10000868;-66
2022/01/08 01:28:23;;;;;;;12.53;8.63;;;2.40;99.90;;;;;;4971873;28;20484;-65
2022/01/08 01:42:15;;;;;;;13.17;8.60;;;2.60;99.90;;;;;;4972021;28;20474;-66
2022/01/08 01:47:33;;;;;;;10.77;8.37;;;2.60;99.90;;;;;;4971329;28;20487;-66
2022/01/08 01:50:03;;;;;;;13.73;9.37;;;2.60;99.90;;;;;;4971791;28;20471;-66
2022/01/08 01:52:31;;;;;;;10.27;8.23;;;2.60;99.90;;;;;;4971658;28;21058;-66
2022/01/08 01:54:59;;;;;;;12.97;8.93;;;2.50;99.90;;;;;;4971793;28;20493;-66
2022/01/08 01:57:30;;;;;;;11.80;8.43;;;2.50;99.90;;;;;;4971691;28;20802;-66
2022/01/08 01:59:59;;;;;;;12.10;8.43;;;2.50;99.90;;;;;;4971601;28;20488;-65
2022/01/08 02:02:27;;;;;;;12.27;8.90;;;2.60;99.90;;;;;;4971620;28;20462;-66
2022/01/08 02:04:56;;;;;;;13.20;9.40;;;2.60;99.90;;;;;;4971991;28;20479;-66
2022/01/08 02:07:27;;;;;;;11.77;9.40;;;2.50;99.90;;;;;;4971356;28;20607;-66
2022/01/08 02:09:56;;;;;;;11.67;9.07;;;2.50;99.90;;;;;;4952713;28;20478;-66
2022/01/08 02:12:26;;;;;;;14.80;8.93;;;2.50;99.90;;;;;;4952076;28;20472;-65
2022/01/08 02:14:55;;;;;;;12.37;9.60;;;2.60;99.90;;;;;;4952373;28;20676;-65
2022/01/08 02:17:24;;;;;;;12.13;9.00;;;2.60;99.90;;;;;;4952313;28;20469;-66
2022/01/08 02:19:54;;;;;;;14.70;10.20;;;2.50;99.90;;;;;;4952537;28;20488;-66
2022/01/08 02:22:23;;;;;;;16.17;9.53;;;2.60;99.90;;;;;;4952387;28;20534;-66
2022/01/08 02:24:51;;;;;;;15.30;9.73;;;2.60;99.90;;;;;;4952399;28;20467;-66
2022/01/08 02:27:21;;;;;;;13.67;9.97;;;2.60;99.90;;;;;;4952020;28;20581;-65
2022/01/08 02:29:50;;;;;;;14.20;9.83;;;2.50;99.90;;;;;;4952358;28;20863;-66
2022/01/08 02:32:24;;;;;;;15.30;10.10;;;2.50;99.90;;;;;;4952601;28;20988;-66
2022/01/08 02:34:54;;;;;;;15.60;10.47;;;2.60;99.90;;;;;;4956269;28;20489;-66
2022/01/08 02:37:29;;;;;;;15.00;10.67;;;2.60;99.90;;;;;;4956331;28;20570;-66
2022/01/08 02:39:58;;;;;;;14.63;10.33;;;2.60;99.90;;;;;;4956243;28;20515;-65
2022/01/08 02:42:36;;;;;;;13.67;10.13;;;2.50;99.90;;;;;;4955611;28;20463;-65
2022/01/08 02:45:06;;;;;;;15.57;11.00;;;2.50;99.90;;;;;;4955916;28;20462;-65
2022/01/08 02:47:35;;;;;;;16.90;10.50;;;2.60;99.90;;;;;;4954937;28;20484;-66
2022/01/08 02:50:06;;;;;;;13.47;10.47;;;2.60;99.90;;;;;;4955899;28;20482;-65
2022/01/08 02:52:34;;;;;;;14.40;10.27;;;2.60;99.90;;;;;;4955486;28;20553;-66
2022/01/08 02:55:04;;;;;;;14.43;10.47;;;2.60;99.90;;;;;;4956372;28;20988;-66
2022/01/08 02:57:33;;;;;;;14.00;10.70;;;2.60;99.90;;;;;;4955713;28;20503;-65
2022/01/08 03:02:45;;;;;;;15.17;11.00;;;2.60;99.90;;;;;;4945743;28;20536;-65
2022/01/08 03:05:15;;;;;;;14.70;10.87;;;2.50;99.90;;;;;;4955701;28;20488;-65
2022/01/08 03:07:45;;;;;;;14.37;10.43;;;2.60;99.90;;;;;;4944761;28;20491;-66
2022/01/08 03:10:16;;;;;;;16.70;10.57;;;2.60;99.90;;;;;;4955677;28;21014;-66
2022/01/08 03:12:45;;;;;;;16.50;10.03;;;2.60;99.90;;;;;;4964437;28;20560;-65
2022/01/08 03:15:16;;;;;;;14.77;9.93;;;2.50;99.90;;;;;;4974173;28;20509;-65
2022/01/08 03:18:00;;;;;;;13.04;9.89;;;2.50;99.90;;;;;;2858904;28;10003328;-65
2022/01/08 03:20:31;;;;;;;16.00;9.20;;;2.50;99.90;;;;;;3929849;28;10001056;-65
2022/01/08 03:23:03;;;;;;;15.97;9.53;;;2.60;99.90;;;;;;4965047;28;20488;-65
2022/01/08 03:25:32;;;;;;;13.00;9.53;;;2.50;99.90;;;;;;4974343;28;20474;-66
2022/01/08 03:28:01;;;;;;;15.43;9.93;;;2.50;99.90;;;;;;4973860;28;20485;-66
2022/01/08 03:30:29;;;;;;;15.17;10.67;;;2.50;99.90;;;;;;4973971;28;20477;-66
2022/01/08 03:32:58;;;;;;;14.87;9.50;;;2.60;99.90;;;;;;4974374;28;20503;-66
2022/01/08 03:35:26;;;;;;;17.43;10.90;;;2.70;99.90;;;;;;4973589;28;20476;-66
2022/01/08 03:37:56;;;;;;;14.73;9.70;;;2.70;99.90;;;;;;4973654;28;20531;-66
2022/01/08 03:40:25;;;;;;;14.97;11.10;;;2.70;99.90;;;;;;4974036;28;20601;-66
2022/01/08 03:42:53;;;;;;;15.80;11.50;;;2.70;99.90;;;;;;4973686;28;20473;-66
2022/01/08 03:45:21;;;;;;;14.33;11.40;;;2.70;99.90;;;;;;4973750;28;20477;-66
2022/01/08 03:48:18;;;;;;;16.97;11.23;;;2.70;99.90;;;;;;4973252;28;20484;-66
2022/01/08 03:50:47;;;;;;;17.60;11.70;;;2.70;99.90;;;;;;4973331;28;21037;-66
2022/01/08 03:53:16;;;;;;;15.47;11.13;;;2.70;99.90;;;;;;4958316;28;20491;-66
2022/01/08 03:55:45;;;;;;;19.60;12.43;;;2.80;99.90;;;;;;4963708;28;20570;-66
2022/01/08 03:58:13;;;;;;;18.80;11.47;;;2.70;99.90;;;;;;4973794;28;20537;-66
2022/01/08 04:00:42;;;;;;;19.87;11.87;;;2.80;99.90;;;;;;4973504;28;20562;-65
2022/01/08 04:03:10;;;;;;;15.23;11.10;;;2.70;99.90;;;;;;4973460;28;20873;-66
2022/01/08 04:05:38;;;;;;;15.37;10.00;;;2.80;99.90;;;;;;4973798;28;20567;-66
2022/01/08 04:08:06;;;;;;;17.00;10.20;;;2.80;99.90;;;;;;4973213;28;20474;-66
2022/01/08 04:10:36;;;;;;;21.10;12.23;;;2.90;99.90;;;;;;4973570;28;20499;-66
2022/01/08 04:13:10;;;;;;;16.73;12.10;;;2.80;99.90;;;;;;4973068;28;20472;-66
2022/01/08 04:15:39;;;;;;;15.90;10.60;;;2.80;99.90;;;;;;4973473;28;20483;-66
2022/01/08 04:18:09;;;;;;;16.57;10.80;;;2.80;99.90;;;;;;4973616;28;20478;-66
2022/01/08 04:20:50;;;;;;;17.40;11.17;;;2.70;99.90;;;;;;4973241;28;20479;-66
2022/01/08 04:23:21;;;;;;;16.03;11.10;;;2.80;99.90;;;;;;4973136;28;20518;-66
2022/01/08 04:25:51;;;;;;;15.37;10.80;;;2.80;99.90;;;;;;4973366;28;20478;-66
2022/01/08 04:28:19;;;;;;;15.33;11.40;;;2.70;99.90;;;;;;4972792;28;20980;-65
2022/01/08 04:30:48;;;;;;;17.55;12.23;;;2.70;99.90;;;;;;4972949;28;20790;-66
2022/01/08 04:33:16;;;;;;;14.57;10.10;;;2.70;99.90;;;;;;4972988;28;20235;-65
2022/01/08 04:35:44;;;;;;;13.70;10.30;;;2.70;99.90;;;;;;4973157;28;20496;-66
2022/01/08 04:38:13;;;;;;;16.60;10.97;;;2.80;99.90;;;;;;4973118;28;20478;-66
2022/01/08 04:40:41;;;;;;;14.83;10.53;;;2.80;99.90;;;;;;4973114;28;20993;-66
2022/01/08 04:43:11;;;;;;;14.80;10.97;;;2.80;99.90;;;;;;4972403;28;20982;-66
2022/01/08 04:45:39;;;;;;;15.90;11.10;;;2.80;99.90;;;;;;4973263;28;20553;-65
2022/01/08 04:48:07;;;;;;;18.50;10.97;;;2.80;99.90;;;;;;4972706;28;20480;-66
2022/01/08 04:50:36;;;;;;;16.13;10.23;;;2.70;99.90;;;;;;4972995;28;20554;-65
2022/01/08 04:53:04;;;;;;;17.93;11.97;;;2.80;99.90;;;;;;4972635;28;20491;-65
2022/01/08 04:55:32;;;;;;;14.97;11.07;;;2.80;99.90;;;;;;4972264;28;20462;-66
2022/01/08 04:58:00;;;;;;;15.53;11.43;;;2.90;99.90;;;;;;4972616;28;20489;-65
2022/01/08 05:00:30;;;;;;;20.10;13.43;;;2.90;99.90;;;;;;4972615;28;20836;-66
2022/01/08 05:02:59;;;;;;;18.83;13.03;;;2.90;99.90;;;;;;4972314;28;20503;-66
2022/01/08 05:05:27;;;;;;;19.43;12.83;;;2.90;99.90;;;;;;4972481;28;20784;-66
2022/01/08 05:07:56;;;;;;;17.93;12.63;;;2.80;99.90;;;;;;4972159;28;20854;-66
2022/01/08 05:10:24;;;;;;;16.60;12.83;;;2.70;99.90;;;;;;4972690;28;20545;-65
2022/01/08 05:12:53;;;;;;;17.50;12.47;;;2.70;99.90;;;;;;4972309;28;20481;-66
2022/01/08 05:15:21;;;;;;;16.57;12.00;;;2.80;99.90;;;;;;4972631;28;20475;-66
2022/01/08 05:17:55;;;;;;;16.12;11.92;;;2.80;99.90;;;;;;3050775;28;10002403;-66
2022/01/08 05:20:26;;;;;;;17.65;12.32;;;2.80;99.90;;;;;;3250854;28;10001977;-66
2022/01/08 05:22:59;;;;;;;18.83;13.03;;;2.70;99.90;;;;;;4972176;28;20239;-66
2022/01/08 05:25:29;;;;;;;17.77;11.90;;;2.80;99.90;;;;;;4971877;28;20468;-65
2022/01/08 05:28:00;;;;;;;18.30;12.30;;;2.80;99.90;;;;;;4971428;28;20564;-66
2022/01/08 05:30:29;;;;;;;22.30;12.80;;;2.80;99.90;;;;;;4971692;28;20867;-66
2022/01/08 05:32:59;;;;;;;16.23;12.03;;;2.80;99.90;;;;;;4971900;28;20468;-66
2022/01/08 05:35:29;;;;;;;17.70;13.50;;;2.80;99.90;;;;;;4972056;28;20481;-66
2022/01/08 05:37:57;;;;;;;20.53;13.23;;;2.80;99.90;;;;;;4971987;28;20523;-66
2022/01/08 05:40:25;;;;;;;19.63;13.00;;;2.80;99.90;;;;;;4971573;28;20478;-65
2022/01/08 05:42:54;;;;;;;18.87;12.63;;;2.80;99.90;;;;;;4971573;28;20490;-66
2022/01/08 05:45:22;;;;;;;20.23;11.97;;;2.70;99.90;;;;;;4972014;28;20476;-66
2022/01/08 05:47:50;;;;;;;20.90;12.90;;;2.70;99.90;;;;;;4971448;28;20504;-66
2022/01/08 05:50:20;;;;;;;18.87;13.17;;;2.80;99.90;;;;;;4969361;28;21016;-66
2022/01/08 05:52:48;;;;;;;17.47;13.53;;;2.80;99.90;;;;;;4971079;28;20506;-65
2022/01/08 05:55:17;;;;;;;20.90;12.20;;;2.80;99.90;;;;;;4969077;28;21062;-66
2022/01/08 05:57:45;;;;;;;16.73;12.20;;;2.80;99.90;;;;;;4970039;28;20559;-66
2022/01/08 06:00:14;;;;;;;18.87;12.33;;;2.90;99.90;;;;;;4971390;28;20502;-66
2022/01/08 06:02:42;;;;;;;20.57;12.50;;;2.80;99.90;;;;;;4970983;28;20853;-66
2022/01/08 06:05:11;;;;;;;18.30;12.67;;;2.80;99.90;;;;;;4971459;28;20473;-65
2022/01/08 06:07:41;;;;;;;18.93;12.97;;;2.70;99.90;;;;;;4968647;28;20510;-65
2022/01/08 06:10:10;;;;;;;16.33;11.83;;;2.80;99.90;;;;;;4971996;28;20484;-66
2022/01/08 06:12:38;;;;;;;17.33;12.27;;;2.80;99.90;;;;;;4971249;28;20496;-66
2022/01/08 06:15:06;;;;;;;16.63;12.27;;;2.80;99.90;;;;;;4972281;28;21047;-66
2022/01/08 06:17:35;;;;;;;19.80;12.10;;;2.80;99.90;;;;;;4971134;28;20559;-66
2022/01/08 06:20:05;;;;;;;17.57;12.87;;;2.90;99.90;;;;;;4956283;28;20822;-66
2022/01/08 06:22:33;;;;;;;17.07;12.50;;;2.80;99.90;;;;;;4955760;28;20566;-66
2022/01/08 06:25:03;;;;;;;19.50;13.07;;;2.80;99.90;;;;;;4971177;28;20476;-66
2022/01/08 06:27:31;;;;;;;21.50;12.80;;;2.80;99.90;;;;;;4971106;28;20483;-66
2022/01/08 06:29:59;;;;;;;16.40;12.50;;;2.90;99.90;;;;;;4966689;28;20467;-66
2022/01/08 06:32:27;;;;;;;15.93;11.10;;;2.90;99.90;;;;;;4967744;28;20465;-66
2022/01/08 06:34:56;;;;;;;16.77;11.47;;;2.90;99.90;;;;;;4960387;28;20576;-66
2022/01/08 06:37:24;;;;;;;20.33;12.17;;;2.90;99.90;;;;;;4951568;28;20476;-66
2022/01/08 06:39:52;;;;;;;17.27;11.50;;;2.90;99.90;;;;;;4952333;28;20487;-65
2022/01/08 06:42:21;;;;;;;18.47;12.90;;;2.90;99.90;;;;;;4951875;28;20989;-66
2022/01/08 06:44:50;;;;;;;20.30;12.63;;;2.90;99.90;;;;;;4952076;28;20827;-65
2022/01/08 06:47:18;;;;;;;18.93;12.73;;;2.90;99.90;;;;;;4951630;28;20476;-66
2022/01/08 06:49:51;;;;;;;16.33;11.63;;;2.80;99.90;;;;;;4956146;28;20479;-66
2022/01/08 06:52:19;;;;;;;19.57;13.17;;;2.90;99.90;;;;;;4954576;28;20472;-66
2022/01/08 06:54:47;;;;;;;18.10;11.97;;;2.80;99.90;;;;;;4963199;28;20909;-66
2022/01/08 06:57:16;;;;;;;19.20;12.97;;;2.90;99.90;;;;;;4968953;28;20476;-65
2022/01/08 06:59:45;;;;;;;22.40;13.87;;;2.90;99.90;;;;;;4969534;28;20503;-66
2022/01/08 07:02:13;;;;;;;20.17;14.27;;;2.80;99.90;;;;;;4968635;28;20474;-66
2022/01/08 07:04:41;;;;;;;21.17;13.23;;;2.80;99.90;;;;;;4954490;28;20480;-66
2022/01/08 07:07:10;;;;;;;20.50;12.73;;;2.80;99.90;;;;;;4951559;28;20465;-66
2022/01/08 07:09:39;;;;;;;19.87;13.50;;;2.80;99.90;;;;;;4943692;28;20492;-66
2022/01/08 07:12:08;;;;;;;20.37;14.70;;;2.80;99.90;;;;;;4951826;28;20472;-66
2022/01/08 07:14:36;;;;;;;24.77;13.73;;;2.80;99.90;;;;;;4951481;28;21043;-66
2022/01/08 07:17:06;;;;;;;21.10;12.87;;;2.80;99.90;;;;;;4873927;28;21768;-65
2022/01/08 07:19:34;;;;;;;21.02;13.80;;;2.80;99.90;;;;;;1025070;28;10002070;-66
2022/01/08 07:22:02;;;;;;;23.27;13.50;;;2.80;99.90;;;;;;4974136;28;20238;-66
2022/01/08 07:24:31;;;;;;;25.67;14.13;;;2.80;99.90;;;;;;4971322;28;20473;-65
2022/01/08 07:26:59;;;;;;;20.30;14.27;;;2.80;99.90;;;;;;4970533;28;20454;-66
2022/01/08 07:29:27;;;;;;;20.93;13.83;;;2.70;99.90;;;;;;4971477;28;20490;-65
2022/01/08 07:31:55;;;;;;;18.83;13.63;;;2.70;99.90;;;;;;4974212;28;20479;-66
2022/01/08 07:34:25;;;;;;;21.17;13.60;;;2.70;99.90;;;;;;4969466;28;20535;-66
2022/01/08 07:36:53;;;;;;;21.30;13.73;;;2.80;99.90;;;;;;4971606;28;20913;-66
2022/01/08 07:39:21;;;;;;;21.87;14.90;;;2.80;99.90;;;;;;4965263;28;20835;-66
2022/01/08 07:41:49;;;;;;;21.03;13.60;;;2.70;99.90;;;;;;4973827;28;20478;-66
2022/01/08 07:44:22;;;;;;;19.43;13.97;;;2.80;99.90;;;;;;4970286;28;20862;-66
2022/01/08 07:46:50;;;;;;;19.07;14.13;;;2.70;99.90;;;;;;4973426;28;20544;-66
2022/01/08 07:49:18;;;;;;;21.07;14.30;;;2.60;99.90;;;;;;4965823;28;20479;-66
2022/01/08 07:51:49;;;;;;;24.13;14.63;;;2.70;99.90;;;;;;4955080;28;20474;-66
2022/01/08 07:54:17;;;;;;;20.17;13.93;;;2.60;99.90;;;;;;4971811;28;20838;-65
2022/01/08 07:56:45;;;;;;;22.67;14.73;;;2.70;99.90;;;;;;4956757;28;20478;-66
2022/01/08 07:59:13;;;;;;;23.33;14.60;;;2.70;99.90;;;;;;4968871;28;20465;-66
2022/01/08 08:01:41;;;;;;;19.83;14.10;;;2.60;99.90;;;;;;4957181;28;20577;-66
2022/01/08 08:04:09;;;;;;;18.87;13.73;;;2.60;99.90;;;;;;4954640;28;20830;-65
2022/01/08 08:06:44;;;;;;;21.33;13.50;;;2.60;99.90;;;;;;4938290;28;20539;-66
2022/01/08 08:09:14;;;;;;;20.60;14.40;;;2.60;99.90;;;;;;4970266;28;20474;-65
2022/01/08 08:11:42;;;;;;;19.10;13.83;;;2.60;99.90;;;;;;4954874;28;20507;-65
2022/01/08 08:14:11;;;;;;;23.00;14.10;;;2.60;99.90;;;;;;4973744;28;20479;-65
2022/01/08 08:16:40;;;;;;;20.43;13.60;;;2.60;99.90;;;;;;4973238;28;21009;-66
2022/01/08 08:19:08;;;;;;;18.67;13.33;;;2.50;99.90;;;;;;4973540;28;21011;-66
2022/01/08 08:21:36;;;;;;;19.03;12.90;;;2.50;99.90;;;;;;4972521;28;21063;-66
2022/01/08 08:24:06;;;;;;;21.17;13.30;;;2.50;99.90;;;;;;4973311;28;20478;-65
2022/01/08 08:26:36;;;;;;;18.73;12.77;;;2.50;99.90;;;;;;4972840;28;20484;-65
2022/01/08 08:29:04;;;;;;;22.27;12.77;;;2.50;99.90;;;;;;4973494;28;20846;-65
2022/01/08 08:31:32;;;;;;;19.77;12.90;;;2.60;99.90;;;;;;4973132;28;20465;-66
2022/01/08 08:34:01;;;;;;;17.97;12.77;;;2.60;99.90;;;;;;4973555;28;21047;-66
2022/01/08 08:36:29;;;;;;;19.90;12.53;;;2.60;99.90;;;;;;4972254;28;20486;-66
2022/01/08 08:38:57;;;;;;;19.80;12.87;;;2.50;99.90;;;;;;4972388;28;20490;-66
2022/01/08 08:41:25;;;;;;;21.17;13.30;;;2.50;99.90;;;;;;4972947;28;20516;-66
2022/01/08 08:43:55;;;;;;;20.03;12.90;;;2.50;99.90;;;;;;4973218;28;20818;-66
2022/01/08 08:46:24;;;;;;;19.13;12.57;;;2.90;99.90;;;;;;4972662;28;20544;-66
2022/01/08 08:48:53;;;;;;;17.30;11.23;;;2.90;99.90;;;;;;4971739;28;20477;-66
2022/01/08 08:51:21;;;;;;;18.77;12.90;;;4.40;99.90;;;;;;4972764;28;20493;-66
2022/01/08 08:53:49;;;;;;;16.67;12.13;;;5.10;99.90;;;;;;4972568;28;20529;-66
2022/01/08 08:56:17;;;;;;;13.80;10.90;;;4.20;99.90;;;;;;4958959;28;20576;-66
2022/01/08 08:58:46;;;;;;;16.57;10.93;;;3.70;99.90;;;;;;4953095;28;21022;-66
2022/01/08 09:01:15;;;;;;;15.43;10.50;;;3.30;99.90;;;;;;4952990;28;20509;-66
2022/01/08 09:03:43;;;;;;;15.60;11.27;;;3.20;99.90;;;;;;4953251;28;20480;-66
2022/01/08 09:06:11;;;;;;;16.03;11.33;;;3.10;99.90;;;;;;4952989;28;20477;-66
2022/01/08 09:08:40;;;;;;;15.33;11.87;;;3.10;99.90;;;;;;4952378;28;21018;-66
2022/01/08 09:11:08;;;;;;;14.97;10.47;;;2.90;99.90;;;;;;4953585;28;20486;-66
2022/01/08 09:13:36;;;;;;;17.43;10.87;;;2.90;99.90;;;;;;4952866;28;20526;-66
2022/01/08 09:16:05;;;;;;;19.73;10.57;;;2.80;99.90;;;;;;4953519;28;20479;-66
2022/01/08 09:18:51;;;;;;;15.01;9.84;;;2.80;99.90;;;;;;1838166;28;10023503;-65
2022/01/08 09:21:20;;;;;;;16.13;11.10;;;2.80;99.90;;;;;;4628175;28;10000928;-66
2022/01/08 09:23:48;;;;;;;15.60;11.20;;;2.80;99.90;;;;;;4972135;28;20558;-66
2022/01/08 09:26:16;;;;;;;17.90;10.97;;;2.80;99.90;;;;;;4969085;28;20474;-66
2022/01/08 09:28:44;;;;;;;14.53;11.47;;;2.80;99.90;;;;;;4968468;28;20472;-66
2022/01/08 09:31:14;;;;;;;15.00;11.10;;;2.90;99.90;;;;;;4968783;28;20868;-66
2022/01/08 09:33:42;;;;;;;17.57;11.57;;;2.90;99.90;;;;;;4971745;28;20493;-66
2022/01/08 09:36:11;;;;;;;19.50;12.20;;;2.90;99.90;;;;;;4972267;28;20841;-66
2022/01/08 09:38:40;;;;;;;13.63;10.50;;;2.90;99.90;;;;;;4972081;28;20559;-66
2022/01/08 09:41:08;;;;;;;15.60;11.10;;;2.80;99.90;;;;;;4967774;28;20819;-66
2022/01/08 09:43:37;;;;;;;17.20;11.47;;;2.90;99.90;;;;;;4971540;28;20471;-66
2022/01/08 09:46:05;;;;;;;15.13;11.50;;;2.90;99.90;;;;;;4971944;28;20464;-66
2022/01/08 09:48:33;;;;;;;15.53;11.33;;;3.00;99.90;;;;;;4971688;28;20471;-66
2022/01/08 09:51:02;;;;;;;16.87;11.53;;;3.00;99.90;;;;;;4971375;28;20494;-66
2022/01/08 09:53:31;;;;;;;16.20;11.17;;;3.00;99.90;;;;;;4971710;28;20881;-66
2022/01/08 09:56:00;;;;;;;16.67;11.53;;;3.00;99.90;;;;;;4971672;28;21055;-66
2022/01/08 09:58:33;;;;;;;17.83;11.77;;;3.20;99.90;;;;;;4971778;28;20480;-66
2022/01/08 10:01:01;;;;;;;16.83;12.07;;;3.30;99.90;;;;;;4972157;28;20907;-66
2022/01/08 10:03:32;;;;;;;18.40;11.57;;;3.30;99.90;;;;;;4971351;28;21066;-66
2022/01/08 10:06:01;;;;;;;16.10;11.23;;;3.30;99.90;;;;;;4971906;28;20888;-66
2022/01/08 10:08:47;;;;;;;17.50;11.93;;;3.40;99.90;;;;;;4971176;28;20478;-66
2022/01/08 10:11:17;;;;;;;18.00;11.90;;;3.40;99.90;;;;;;4971967;28;20481;-66
2022/01/08 10:13:47;;;;;;;14.80;10.53;;;3.50;99.90;;;;;;4955299;28;20487;-66
2022/01/08 10:19:17;;;;;;;16.93;11.00;;;3.60;99.90;;;;;;4971556;28;20474;-66
2022/01/08 10:21:46;;;;;;;16.00;11.40;;;3.70;99.90;;;;;;4956221;28;20562;-66
2022/01/08 10:24:21;;;;;;;15.90;10.33;;;3.80;99.90;;;;;;4946032;28;20482;-66
2022/01/08 10:26:51;;;;;;;15.10;10.33;;;3.80;99.90;;;;;;4946045;28;20550;-66
2022/01/08 10:29:21;;;;;;;13.70;10.20;;;3.70;99.90;;;;;;4946937;28;20869;-66
2022/01/08 10:31:51;;;;;;;15.53;11.20;;;3.90;99.90;;;;;;4946450;28;20487;-66
2022/01/08 10:34:21;;;;;;;15.83;10.83;;;4.00;99.90;;;;;;4945702;28;20492;-66
2022/01/08 10:36:59;;;;;;;15.03;10.93;;;4.10;99.90;;;;;;4946094;28;20485;-65
2022/01/08 10:39:31;;;;;;;18.93;11.43;;;4.10;99.90;;;;;;4946758;28;20514;-66
2022/01/08 10:42:01;;;;;;;19.33;11.17;;;4.10;99.90;;;;;;4946353;28;20486;-66
2022/01/08 10:44:31;;;;;;;19.57;11.33;;;4.10;99.90;;;;;;4945526;28;20485;-66
2022/01/08 10:47:03;;;;;;;17.43;10.73;;;4.00;99.90;;;;;;4946605;28;20478;-66
2022/01/08 10:49:33;;;;;;;15.27;10.10;;;4.00;99.90;;;;;;4945837;28;20489;-65
2022/01/08 10:52:04;;;;;;;14.43;10.30;;;4.00;99.90;;;;;;4946101;28;20496;-66
2022/01/08 10:54:35;;;;;;;18.10;11.30;;;4.10;99.90;;;;;;4947594;28;20827;-66
2022/01/08 10:57:08;;;;;;;16.10;10.13;;;4.20;99.90;;;;;;4949306;28;20484;-66
2022/01/08 10:59:37;;;;;;;14.93;10.30;;;4.40;99.90;;;;;;4949701;28;20496;-66
2022/01/08 11:02:06;;;;;;;14.73;10.23;;;4.40;99.90;;;;;;4950168;28;20496;-66
2022/01/08 11:04:42;;;;;;;17.30;10.10;;;4.50;99.90;;;;;;4948721;28;20955;-65
2022/01/08 11:07:13;;;;;;;13.90;9.63;;;4.60;99.90;;;;;;4968957;28;20486;-66
2022/01/08 11:09:44;;;;;;;14.70;9.83;;;4.50;99.90;;;;;;4969093;28;20476;-66
2022/01/08 11:12:17;;;;;;;15.50;9.27;;;4.40;99.90;;;;;;4959797;28;20492;-65
2022/01/08 11:15:02;;;;;;;16.77;9.23;;;4.40;99.90;;;;;;4971302;28;20544;-65
2022/01/08 11:17:44;;;;;;;11.33;8.73;;;4.40;99.90;;;;;;3422097;28;10022555;-65
2022/01/08 11:20:14;;;;;;;16.38;9.32;;;4.40;99.90;;;;;;2903662;28;10002024;-65
2022/01/08 11:22:46;;;;;;;15.23;9.50;;;4.50;99.90;;;;;;4966294;28;20258;-65
2022/01/08 11:25:17;;;;;;;15.83;9.23;;;4.60;99.90;;;;;;4981694;28;20484;-65
2022/01/08 11:27:52;;;;;;;14.93;9.50;;;4.70;99.90;;;;;;4971734;28;20473;-65
2022/01/08 11:30:22;;;;;;;12.83;9.60;;;4.70;99.90;;;;;;4972670;28;20598;-65
2022/01/08 11:32:54;;;;;;;11.73;8.80;;;4.80;99.90;;;;;;4971709;28;20556;-65
2022/01/08 11:35:36;;;;;;;12.40;9.07;;;4.80;99.90;;;;;;4972643;28;21050;-65
2022/01/08 11:38:07;;;;;;;14.93;9.67;;;4.80;99.90;;;;;;4972694;28;20474;-65
2022/01/08 11:40:38;;;;;;;16.00;10.43;;;4.80;99.90;;;;;;4972361;28;20961;-66
2022/01/08 11:43:08;;;;;;;12.40;9.33;;;4.80;99.90;;;;;;4971570;28;22696;-65
2022/01/08 11:45:39;;;;;;;13.23;9.67;;;4.70;99.90;;;;;;4972146;28;20478;-65
2022/01/08 11:48:11;;;;;;;15.37;10.23;;;4.60;99.90;;;;;;4972009;28;20862;-69
2022/01/08 11:50:40;;;;;;;15.33;10.13;;;4.60;99.90;;;;;;4972449;28;20818;-66
2022/01/08 11:53:12;;;;;;;13.00;9.37;;;4.50;99.90;;;;;;4973765;28;20477;-64
2022/01/08 11:55:43;;;;;;;13.27;10.43;;;4.40;99.90;;;;;;4973950;28;20497;-65
2022/01/08 11:58:16;;;;;;;13.47;10.17;;;4.30;99.90;;;;;;4973651;28;20526;-65
2022/01/08 12:00:56;;;;;;;15.93;10.73;;;4.20;99.90;;;;;;4973823;28;20522;-66
2022/01/08 12:03:30;;;;;;;18.10;11.43;;;4.20;99.90;;;;;;4973737;28;20474;-65
2022/01/08 12:05:59;;;;;;;16.37;10.40;;;4.40;99.90;;;;;;4973221;28;20501;-66
2022/01/08 12:08:57;;;;;;;18.40;10.93;;;4.40;99.90;;;;;;4972216;28;21036;-66
2022/01/08 12:11:31;;;;;;;13.97;10.47;;;4.50;99.90;;;;;;4969075;28;20481;-67
2022/01/08 12:14:09;;;;;;;15.73;10.83;;;4.60;99.90;;;;;;4973616;28;20484;-66
2022/01/08 12:16:39;;;;;;;14.53;11.00;;;4.60;99.90;;;;;;4973385;28;21006;-66
2022/01/08 12:19:09;;;;;;;14.97;11.27;;;4.60;99.90;;;;;;4973694;28;20481;-66
2022/01/08 12:21:39;;;;;;;15.97;11.20;;;4.60;99.90;;;;;;4973122;28;20481;-66
2022/01/08 12:24:38;;;;;;;22.50;11.97;;;4.60;99.90;;;;;;4973734;28;20559;-66
2022/01/08 12:27:39;;;;;;;15.63;11.57;;;4.50;99.90;;;;;;4967976;28;20473;-66
2022/01/08 12:30:35;;;;;;;15.70;11.07;;;4.60;99.90;;;;;;4972543;28;20533;-66
2022/01/08 12:33:24;;;;;;;17.43;11.10;;;4.70;99.90;;;;;;4972934;28;20493;-66
2022/01/08 12:35:57;;;;;;;19.87;11.80;;;4.70;99.90;;;;;;4973032;28;20478;-66
2022/01/08 12:38:31;;;;;;;15.33;10.57;;;4.70;99.90;;;;;;4973118;28;20484;-67
2022/01/08 12:41:00;;;;;;;19.30;12.77;;;4.70;99.90;;;;;;4973319;28;20478;-66
2022/01/08 12:43:35;;;;;;;17.60;11.37;;;4.70;99.90;;;;;;4972911;28;20477;-66
2022/01/08 12:46:19;;;;;;;21.63;13.53;;;4.80;99.90;;;;;;4973022;28;20486;-66
2022/01/08 12:49:10;;;;;;;18.93;12.20;;;4.70;99.90;;;;;;4970789;28;21043;-66
2022/01/08 12:52:04;;;;;;;22.10;12.80;;;4.80;99.90;;;;;;4955713;28;20474;-66
2022/01/08 12:54:33;;;;;;;20.20;11.20;;;4.90;99.90;;;;;;4972703;28;20486;-66
2022/01/08 12:57:05;;;;;;;16.17;10.53;;;4.90;99.90;;;;;;4972849;28;20469;-66
2022/01/08 12:59:38;;;;;;;21.20;10.73;;;4.80;99.90;;;;;;4972350;28;20513;-66
2022/01/08 13:02:09;;;;;;;15.27;9.90;;;4.80;99.90;;;;;;4970178;28;21078;-66
2022/01/08 13:04:39;;;;;;;12.37;9.40;;;4.80;99.90;;;;;;4964136;28;20478;-66
2022/01/08 13:07:08;;;;;;;13.77;9.67;;;4.80;99.90;;;;;;4956233;28;21027;-66
2022/01/08 13:09:37;;;;;;;14.87;9.73;;;4.80;99.90;;;;;;4964153;28;20627;-66
2022/01/08 13:12:05;;;;;;;16.47;10.57;;;4.80;99.90;;;;;;4944372;28;20503;-66
2022/01/08 13:14:35;;;;;;;17.13;10.17;;;4.80;99.90;;;;;;4946209;28;20491;-66